createdAt,value
2018-08-17T00:01:00.547Z,100884.30
2018-08-17T00:03:30.666Z,100877.23
2018-08-17T00:06:00.837Z,100874.25
2018-08-17T00:08:30.968Z,100876.55
2018-08-17T00:11:01.195Z,100867.06
2018-08-17T00:13:31.312Z,100870.11
2018-08-17T00:16:01.502Z,100862.93
2018-08-17T00:18:32.069Z,100856.25
2018-08-17T00:21:02.201Z,100857.59
2018-08-17T00:23:32.378Z,100856.00
2018-08-17T00:26:02.485Z,100850.41
2018-08-17T00:28:32.611Z,100852.48
2018-08-17T00:31:02.805Z,100851.63
2018-08-17T00:33:32.984Z,100854.42
2018-08-17T00:36:03.098Z,100856.98
2018-08-17T00:38:33.186Z,100858.56
2018-08-17T00:41:03.299Z,100861.00
2018-08-17T00:43:33.490Z,100868.50
2018-08-17T00:46:03.788Z,100870.41
2018-08-17T00:48:33.880Z,100866.78
2018-08-17T00:51:04.053Z,100874.17
2018-08-17T00:53:34.310Z,100878.53
2018-08-17T00:56:04.517Z,100879.27
2018-08-17T00:58:34.699Z,100888.38
2018-08-17T01:01:04.992Z,100888.56
2018-08-17T01:03:35.144Z,100886.52
2018-08-17T01:06:05.328Z,100895.76
2018-08-17T01:08:35.518Z,100903.30
2018-08-17T01:11:05.773Z,100901.48
2018-08-17T01:13:35.968Z,100898.81
2018-08-17T01:16:06.205Z,100909.50
2018-08-17T01:18:36.382Z,100914.02
2018-08-17T01:21:06.599Z,100923.14
2018-08-17T01:23:36.715Z,100922.77
2018-08-17T01:26:06.879Z,100937.74
2018-08-17T01:28:37.075Z,100942.48
2018-08-17T01:31:07.284Z,100945.78
2018-08-17T01:33:37.377Z,100951.98
2018-08-17T01:36:07.451Z,100963.66
2018-08-17T01:38:37.574Z,100976.54
2018-08-17T01:41:07.721Z,100979.11
2018-08-17T01:43:37.850Z,100983.48
2018-08-17T01:46:08.072Z,100984.22
2018-08-17T01:48:38.181Z,100989.93
2018-08-17T01:51:08.331Z,101000.39
2018-08-17T01:53:38.536Z,101001.58
2018-08-17T01:56:08.644Z,101005.44
2018-08-17T01:58:38.740Z,100998.81
2018-08-17T02:01:08.891Z,100995.09
2018-08-17T02:03:38.995Z,100992.01
2018-08-17T02:06:09.191Z,100982.03
2018-08-17T02:08:39.341Z,100983.31
2018-08-17T02:11:09.553Z,100994.48
2018-08-17T02:13:39.636Z,101000.33
2018-08-17T02:16:09.804Z,101001.66
2018-08-17T02:18:40.159Z,101000.77
2018-08-17T02:21:10.426Z,101009.36
2018-08-17T02:23:40.577Z,101010.52
2018-08-17T02:26:10.658Z,101023.64
2018-08-17T02:28:40.860Z,101017.55
2018-08-17T02:31:10.940Z,101018.30
2018-08-17T02:33:41.024Z,101025.34
2018-08-17T02:36:11.128Z,101023.56
2018-08-17T02:38:41.236Z,101029.92
2018-08-17T02:41:11.367Z,101035.42
2018-08-17T02:43:41.509Z,101029.44
2018-08-17T02:46:11.599Z,101033.34
2018-08-17T02:48:41.766Z,101035.94
2018-08-17T02:51:12.011Z,101035.94
2018-08-17T02:53:42.244Z,101036.87
2018-08-17T02:56:12.461Z,101035.42
2018-08-17T02:58:42.621Z,101034.30
2018-08-17T03:01:12.903Z,101030.28
2018-08-17T03:03:42.997Z,101017.05
2018-08-17T03:06:13.063Z,101021.98
2018-08-17T03:08:43.167Z,101021.55
2018-08-17T03:11:13.329Z,101022.27
2018-08-17T03:13:43.420Z,101028.93
2018-08-17T03:16:13.480Z,101023.72
2018-08-17T03:18:43.576Z,101012.55
2018-08-17T03:21:13.681Z,101005.72
2018-08-17T03:23:43.849Z,101001.60
2018-08-17T03:26:13.947Z,101001.50
2018-08-17T03:28:44.096Z,101007.80
2018-08-17T03:31:14.151Z,101010.63
2018-08-17T03:33:44.252Z,101008.76
2018-08-17T03:36:14.369Z,101024.23
2018-08-17T03:38:44.502Z,101032.96
2018-08-17T03:41:14.630Z,101037.20
2018-08-17T03:43:44.745Z,101045.48
2018-08-17T03:46:14.919Z,101036.17
2018-08-17T03:48:45.028Z,101038.78
2018-08-17T03:51:15.126Z,101045.00
2018-08-17T03:53:45.197Z,101058.67
2018-08-17T03:56:15.471Z,101053.47
2018-08-17T03:58:45.661Z,101047.20
2018-08-17T04:01:15.828Z,101061.20
2018-08-17T04:03:45.950Z,101061.27
2018-08-17T04:06:16.135Z,101067.30
2018-08-17T04:08:46.268Z,101060.91
2018-08-17T04:11:16.340Z,101055.80
2018-08-17T04:13:46.470Z,101057.48
2018-08-17T04:16:16.558Z,101053.25
2018-08-17T04:18:50.609Z,101051.50
2018-08-17T04:21:20.809Z,101040.85
2018-08-17T04:23:51.043Z,101034.89
2018-08-17T04:26:21.365Z,101035.52
2018-08-17T04:28:51.859Z,101035.64
2018-08-17T04:31:22.199Z,101037.53
2018-08-17T04:33:52.327Z,101037.05
2018-08-17T04:36:22.433Z,101051.93
2018-08-17T04:38:52.518Z,101067.50
2018-08-17T04:41:22.506Z,101051.87
2018-08-17T04:43:52.612Z,101057.27
2018-08-17T04:46:22.809Z,101070.41
2018-08-17T04:48:52.939Z,101080.11
2018-08-17T04:51:23.024Z,101086.08
2018-08-17T04:53:53.161Z,101094.44
2018-08-17T04:56:23.203Z,101106.83
2018-08-17T04:58:53.396Z,101112.88
2018-08-17T05:01:23.486Z,101107.22
2018-08-17T05:03:53.772Z,101112.98
2018-08-17T05:06:23.953Z,101140.32
2018-08-17T05:08:54.091Z,101143.19
2018-08-17T05:11:24.277Z,101130.44
2018-08-17T05:13:54.357Z,101164.72
2018-08-17T05:16:24.528Z,101156.20
2018-08-17T05:18:54.871Z,101160.86
2018-08-17T05:21:24.975Z,101155.37
2018-08-17T05:23:55.139Z,101160.40
2018-08-17T05:26:25.230Z,101155.30
2018-08-17T05:28:55.382Z,101154.16
2018-08-17T05:31:25.469Z,101179.03
2018-08-17T05:33:55.583Z,101183.80
2018-08-17T05:36:25.715Z,101174.02
2018-08-17T05:38:55.888Z,101161.07
2018-08-17T05:41:25.983Z,101161.23
2018-08-17T05:43:56.084Z,101165.64
2018-08-17T05:46:26.242Z,101149.84
2018-08-17T05:48:56.557Z,101153.23
2018-08-17T05:51:26.718Z,101162.28
2018-08-17T05:53:56.886Z,101158.56
2018-08-17T05:56:26.992Z,101153.64
2018-08-17T05:58:57.200Z,101161.83
2018-08-17T06:01:27.403Z,101163.81
2018-08-17T06:03:57.578Z,101160.95
2018-08-17T06:06:27.656Z,101151.55
2018-08-17T06:08:57.751Z,101168.52
2018-08-17T06:11:27.865Z,101174.50
2018-08-17T06:13:57.894Z,101172.09
2018-08-17T06:16:28.014Z,101181.50
2018-08-17T06:18:58.157Z,101186.39
2018-08-17T06:21:28.293Z,101179.89
2018-08-17T06:23:58.521Z,101189.27
2018-08-17T06:26:28.635Z,101195.38
2018-08-17T06:28:58.797Z,101203.16
2018-08-17T06:31:28.922Z,101203.94
2018-08-17T06:33:59.038Z,101205.75
2018-08-17T06:36:29.192Z,101211.05
2018-08-17T06:38:59.351Z,101215.31
2018-08-17T06:41:29.360Z,101204.70
2018-08-17T06:43:59.485Z,101205.12
2018-08-17T06:46:29.622Z,101200.83
2018-08-17T06:48:59.809Z,101193.60
2018-08-17T06:51:30.077Z,101181.81
2018-08-17T06:54:00.229Z,101182.27
2018-08-17T06:56:30.322Z,101180.30
2018-08-17T06:59:00.499Z,101177.91
2018-08-17T07:01:30.603Z,101172.88
2018-08-17T07:04:00.895Z,101166.98
2018-08-17T07:06:30.977Z,101156.26
2018-08-17T07:09:01.179Z,101155.41
2018-08-17T07:11:31.257Z,101143.43
2018-08-17T07:14:01.442Z,101150.66
2018-08-17T07:16:31.562Z,101169.11
2018-08-17T07:19:01.696Z,101173.30
2018-08-17T07:21:31.819Z,101177.58
2018-08-17T07:24:01.976Z,101172.90
2018-08-17T07:26:32.091Z,101177.09
2018-08-17T07:29:02.241Z,101181.09
2018-08-17T07:31:32.392Z,101191.54
2018-08-17T07:34:02.552Z,101195.16
2018-08-17T07:36:32.666Z,101188.64
2018-08-17T07:39:02.797Z,101200.34
2018-08-17T07:41:32.921Z,101200.32
2018-08-17T07:44:03.390Z,101210.06
2018-08-17T07:46:33.533Z,101205.44
2018-08-17T07:49:03.709Z,101207.10
2018-08-17T07:51:33.836Z,101220.95
2018-08-17T07:54:03.991Z,101218.88
2018-08-17T07:56:34.110Z,101213.16
2018-08-17T07:59:04.259Z,101205.56
2018-08-17T08:01:34.317Z,101210.32
2018-08-17T08:04:04.472Z,101216.53
2018-08-17T08:06:34.548Z,101216.89
2018-08-17T08:09:06.387Z,101220.03
2018-08-17T08:11:36.510Z,101211.14
2018-08-17T08:14:06.670Z,101207.53
2018-08-17T08:16:36.851Z,101211.72
2018-08-17T08:19:13.294Z,101222.34
2018-08-17T08:21:50.911Z,101220.56
2018-08-17T08:24:21.175Z,101230.28
2018-08-17T08:29:32.579Z,101234.66
2018-08-17T08:32:02.677Z,101247.23
2018-08-17T08:34:32.832Z,101256.08
2018-08-17T08:37:02.928Z,101254.88
2018-08-17T08:39:33.102Z,101268.52
2018-08-17T08:42:03.287Z,101277.25
2018-08-17T08:44:33.423Z,101275.89
2018-08-17T08:47:03.511Z,101280.82
2018-08-17T08:49:33.632Z,101286.34
2018-08-17T08:52:03.830Z,101294.27
2018-08-17T08:54:34.018Z,101301.93
2018-08-17T08:57:04.134Z,101295.16
2018-08-17T08:59:34.232Z,101291.73
2018-08-17T09:02:04.391Z,101290.22
2018-08-17T09:04:34.508Z,101290.52
2018-08-17T09:07:04.592Z,101288.23
2018-08-17T09:09:34.815Z,101289.81
2018-08-17T09:12:04.949Z,101294.79
2018-08-17T09:14:35.068Z,101295.39
2018-08-17T09:17:05.200Z,101293.39
2018-08-17T09:19:35.343Z,101289.51
2018-08-17T09:22:05.605Z,101289.97
2018-08-17T09:24:35.731Z,101294.83
2018-08-17T09:27:06.279Z,101303.71
2018-08-17T09:29:36.436Z,101304.23
2018-08-17T09:32:07.563Z,101309.42
2018-08-17T09:34:37.668Z,101310.70
2018-08-17T09:37:08.053Z,101312.84
2018-08-17T09:39:38.162Z,101312.26
2018-08-17T09:42:08.414Z,101312.72
2018-08-17T09:44:38.527Z,101312.45
2018-08-17T09:47:08.736Z,101310.09
2018-08-17T09:49:38.881Z,101315.41
2018-08-17T09:52:09.000Z,101323.64
2018-08-17T09:54:39.124Z,101325.87
2018-08-17T09:57:09.195Z,101324.27
2018-08-17T09:59:39.336Z,101318.66
2018-08-17T10:02:14.621Z,101319.37
2018-08-17T10:04:49.798Z,101318.55
2018-08-17T10:07:24.906Z,101314.17
2018-08-17T10:10:00.195Z,101309.58
2018-08-17T10:12:30.272Z,101305.95
2018-08-17T10:15:00.429Z,101307.89
2018-08-17T10:17:30.597Z,101304.13
2018-08-17T10:20:00.771Z,101307.73
2018-08-17T10:22:30.936Z,101316.80
2018-08-17T10:25:12.060Z,101315.83
2018-08-17T10:27:42.210Z,101313.73
2018-08-17T10:30:12.461Z,101311.36
2018-08-17T10:32:47.696Z,101308.52
2018-08-17T10:35:23.025Z,101312.19
2018-08-17T10:37:55.715Z,101314.30
2018-08-17T10:40:26.394Z,101312.34
2018-08-17T10:42:56.647Z,101315.95
2018-08-17T10:45:27.542Z,101320.29
2018-08-17T10:47:58.047Z,101313.42
2018-08-17T10:50:29.342Z,101323.52
2018-08-17T10:53:01.484Z,101320.58
2018-08-17T10:55:40.506Z,101322.73
2018-08-17T10:58:16.578Z,101322.36
2018-08-17T11:00:46.695Z,101322.08
2018-08-17T11:03:16.762Z,101320.55
2018-08-17T11:05:46.876Z,101330.20
2018-08-17T11:08:16.951Z,101334.13
2018-08-17T11:10:47.050Z,101339.87
2018-08-17T11:13:17.177Z,101345.17
2018-08-17T11:15:47.364Z,101355.84
2018-08-17T11:18:17.467Z,101358.02
2018-08-17T11:20:47.576Z,101357.58
2018-08-17T11:23:17.662Z,101351.07
2018-08-17T11:25:47.758Z,101363.08
2018-08-17T11:28:17.846Z,101358.01
2018-08-17T11:30:48.058Z,101359.13
2018-08-17T11:33:20.228Z,101366.16
2018-08-17T11:35:50.340Z,101366.52
2018-08-17T11:38:20.525Z,101366.00
2018-08-17T11:40:50.701Z,101366.20
2018-08-17T11:43:20.871Z,101359.97
2018-08-17T11:45:50.959Z,101358.84
2018-08-17T11:48:28.020Z,101358.43
2018-08-17T11:50:58.580Z,101363.49
2018-08-17T11:53:28.728Z,101362.67
2018-08-17T11:55:58.965Z,101365.50
2018-08-17T11:58:29.039Z,101367.95
2018-08-17T12:00:59.267Z,101363.00
2018-08-17T12:03:30.126Z,101366.27
2018-08-17T12:06:00.262Z,101362.03
2018-08-17T12:08:30.341Z,101361.09
2018-08-17T12:11:04.588Z,101364.72
2018-08-17T12:13:38.175Z,101368.00
2018-08-17T12:16:12.119Z,101366.61
2018-08-17T12:18:42.230Z,101363.88
2018-08-17T12:21:12.428Z,101362.42
2018-08-17T12:23:42.486Z,101364.39
2018-08-17T12:26:12.995Z,101373.61
2018-08-17T12:28:43.047Z,101378.45
2018-08-17T12:31:13.122Z,101372.16
2018-08-17T12:33:43.233Z,101369.30
2018-08-17T12:36:13.317Z,101373.63
2018-08-17T12:38:43.435Z,101367.70
2018-08-17T12:41:13.625Z,101371.56
2018-08-17T12:43:43.683Z,101368.98
2018-08-17T12:46:13.780Z,101374.53
2018-08-17T12:48:43.829Z,101367.52
2018-08-17T12:51:13.958Z,101370.42
2018-08-17T12:53:44.089Z,101367.95
2018-08-17T12:56:14.323Z,101366.66
2018-08-17T12:58:44.373Z,101365.83
2018-08-17T13:01:14.458Z,101375.30
2018-08-17T13:03:44.520Z,101375.00
2018-08-17T13:06:14.682Z,101375.90
2018-08-17T13:08:44.758Z,101371.14
2018-08-17T13:11:14.893Z,101369.16
2018-08-17T13:13:45.005Z,101362.80
2018-08-17T13:16:15.093Z,101372.50
2018-08-17T13:18:45.262Z,101373.86
2018-08-17T13:21:15.326Z,101379.84
2018-08-17T13:23:48.143Z,101384.27
2018-08-17T13:26:18.248Z,101374.84
2018-08-17T13:28:48.301Z,101374.14
2018-08-17T13:31:18.366Z,101366.73
2018-08-17T13:33:48.414Z,101371.47
2018-08-17T13:36:18.600Z,101370.73
2018-08-17T13:38:48.774Z,101364.82
2018-08-17T13:41:19.075Z,101374.45
2018-08-17T13:43:49.199Z,101365.96
2018-08-17T13:46:19.583Z,101369.08
2018-08-17T13:48:49.676Z,101365.00
2018-08-17T13:51:19.848Z,101366.94
2018-08-17T13:53:50.032Z,101356.05
2018-08-17T13:56:20.214Z,101362.55
2018-08-17T13:58:50.384Z,101359.63
2018-08-17T14:01:20.508Z,101352.42
2018-08-17T14:03:50.612Z,101347.33
2018-08-17T14:06:20.770Z,101348.53
2018-08-17T14:08:50.871Z,101350.00
2018-08-17T14:11:20.980Z,101350.27
2018-08-17T14:13:51.071Z,101350.28
2018-08-17T14:16:21.205Z,101347.09
2018-08-17T14:18:51.334Z,101348.66
2018-08-17T14:21:21.478Z,101344.28
2018-08-17T14:23:51.599Z,101341.61
2018-08-17T14:26:21.734Z,101337.50
2018-08-17T14:28:51.835Z,101339.77
2018-08-17T14:31:21.972Z,101344.72
2018-08-17T14:33:52.132Z,101348.84
2018-08-17T14:36:22.425Z,101342.17
2018-08-17T14:38:52.519Z,101336.64
2018-08-17T14:41:22.737Z,101332.33
2018-08-17T14:43:52.883Z,101338.71
2018-08-17T14:46:23.096Z,101336.71
2018-08-17T14:48:53.241Z,101330.12
2018-08-17T14:51:23.299Z,101331.09
2018-08-17T14:53:53.431Z,101340.70
2018-08-17T14:56:23.548Z,101338.89
2018-08-17T14:58:53.614Z,101336.20
2018-08-17T15:01:23.746Z,101339.50
2018-08-17T15:03:53.975Z,101332.98
2018-08-17T15:06:24.115Z,101330.23
2018-08-17T15:08:54.266Z,101331.45
2018-08-17T15:11:24.471Z,101328.91
2018-08-17T15:13:54.548Z,101327.37
2018-08-17T15:16:24.670Z,101326.79
2018-08-17T15:18:54.898Z,101324.20
2018-08-17T15:21:25.135Z,101322.72
2018-08-17T15:23:55.319Z,101325.31
2018-08-17T15:26:25.679Z,101316.03
2018-08-17T15:28:55.759Z,101318.75
2018-08-17T15:31:25.905Z,101318.25
2018-08-17T15:33:56.123Z,101322.74
2018-08-17T15:36:26.248Z,101317.41
2018-08-17T15:38:56.411Z,101326.23
2018-08-17T15:41:26.653Z,101316.94
2018-08-17T15:43:56.726Z,101316.89
2018-08-17T15:46:26.992Z,101312.42
2018-08-17T15:48:57.584Z,101311.53
2018-08-17T15:51:27.686Z,101318.50
2018-08-17T15:53:57.725Z,101312.70
2018-08-17T15:56:27.865Z,101325.05
2018-08-17T15:58:58.006Z,101318.20
2018-08-17T16:01:28.305Z,101319.78
2018-08-17T16:03:58.404Z,101317.85
2018-08-17T16:06:28.714Z,101310.63
2018-08-17T16:08:58.811Z,101308.13
2018-08-17T16:11:28.940Z,101312.36
2018-08-17T16:13:59.045Z,101311.84
2018-08-17T16:16:29.171Z,101312.73
2018-08-17T16:18:59.316Z,101316.59
2018-08-17T16:21:29.570Z,101316.09
2018-08-17T16:23:59.683Z,101325.81
2018-08-17T16:26:29.845Z,101321.72
2018-08-17T16:29:00.067Z,101320.59
2018-08-17T16:31:36.740Z,101322.43
2018-08-17T16:34:07.328Z,101324.61
2018-08-17T16:36:40.562Z,101319.58
2018-08-17T16:39:17.898Z,101321.97
2018-08-17T16:41:48.146Z,101320.67
2018-08-17T16:44:18.213Z,101323.90
2018-08-17T16:46:48.375Z,101320.55
2018-08-17T16:49:18.486Z,101325.48
2018-08-17T16:51:48.642Z,101324.05
2018-08-17T16:54:18.734Z,101316.02
2018-08-17T16:56:48.919Z,101319.97
2018-08-17T16:59:18.972Z,101321.75
2018-08-17T17:01:49.098Z,101321.93
2018-08-17T17:04:19.181Z,101320.81
2018-08-17T17:06:49.319Z,101324.00
2018-08-17T17:09:19.364Z,101323.02
2018-08-17T17:11:49.587Z,101327.34
2018-08-17T17:14:19.636Z,101330.77
2018-08-17T17:16:49.765Z,101330.35
2018-08-17T17:19:21.918Z,101335.46
2018-08-17T17:21:52.588Z,101332.88
2018-08-17T17:24:22.781Z,101331.75
2018-08-17T17:26:52.931Z,101330.51
2018-08-17T17:29:23.059Z,101333.83
2018-08-17T17:31:53.296Z,101334.93
2018-08-17T17:34:23.356Z,101334.00
2018-08-17T17:36:53.475Z,101333.62
2018-08-17T17:39:23.582Z,101338.45
2018-08-17T17:41:53.735Z,101338.98
2018-08-17T17:44:23.837Z,101338.11
2018-08-17T17:46:54.014Z,101338.92
2018-08-17T17:49:24.305Z,101332.55
2018-08-17T17:51:54.553Z,101341.20
2018-08-17T17:54:26.601Z,101340.36
2018-08-17T17:57:02.110Z,101341.59
2018-08-17T17:59:32.225Z,101336.63
2018-08-17T18:02:02.366Z,101342.52
2018-08-17T18:04:32.507Z,101348.13
2018-08-17T18:07:02.647Z,101336.78
2018-08-17T18:09:32.797Z,101344.45
2018-08-17T18:12:03.035Z,101348.28
2018-08-17T18:14:33.194Z,101345.81
2018-08-17T18:17:03.325Z,101348.39
2018-08-17T18:19:33.402Z,101353.31
2018-08-17T18:22:03.537Z,101350.98
2018-08-17T18:24:33.679Z,101352.22
2018-08-17T18:27:03.904Z,101356.54
2018-08-17T18:29:33.977Z,101364.53
2018-08-17T18:32:04.197Z,101360.33
2018-08-17T18:34:34.367Z,101367.11
2018-08-17T18:37:04.495Z,101370.89
2018-08-17T18:39:34.530Z,101377.98
2018-08-17T18:42:04.620Z,101380.61
2018-08-17T18:44:34.687Z,101385.45
2018-08-17T18:47:04.875Z,101390.30
2018-08-17T18:49:34.901Z,101393.09
2018-08-17T18:52:05.266Z,101400.80
2018-08-17T18:54:35.461Z,101392.73
2018-08-17T18:57:05.652Z,101395.73
2018-08-17T18:59:35.770Z,101402.51
2018-08-17T19:02:05.937Z,101405.67
2018-08-17T19:04:36.055Z,101414.45
2018-08-17T19:07:06.320Z,101417.24
2018-08-17T19:09:36.409Z,101416.48
2018-08-17T19:12:06.633Z,101427.70
2018-08-17T19:14:42.470Z,101430.20
2018-08-17T19:17:17.774Z,101434.09
2018-08-17T19:19:47.930Z,101440.14
2018-08-17T19:22:18.145Z,101443.68
2018-08-17T19:24:48.393Z,101439.10
2018-08-17T19:27:53.870Z,101452.59
2018-08-17T19:30:29.144Z,101453.85
2018-08-17T19:33:03.002Z,101457.92
2018-08-17T19:35:33.089Z,101457.45
2018-08-17T19:38:03.220Z,101462.70
2018-08-17T19:40:33.335Z,101460.98
2018-08-17T19:43:03.502Z,101461.03
2018-08-17T19:45:33.563Z,101457.50
2018-08-17T19:48:03.813Z,101457.88
2018-08-17T19:50:33.981Z,101462.88
2018-08-17T19:53:04.091Z,101461.03
2018-08-17T19:55:34.178Z,101470.55
2018-08-17T19:58:04.465Z,101475.10
2018-08-17T20:00:34.590Z,101474.69
2018-08-17T20:03:04.768Z,101473.77
2018-08-17T20:05:34.831Z,101474.51
2018-08-17T20:08:05.042Z,101475.80
2018-08-17T20:10:35.170Z,101474.53
2018-08-17T20:13:05.356Z,101480.48
2018-08-17T20:15:35.595Z,101481.88
2018-08-17T20:18:06.161Z,101481.17
2018-08-17T20:20:36.271Z,101484.72
2018-08-17T20:23:07.353Z,101487.23
2018-08-17T20:25:37.563Z,101485.22
2018-08-17T20:28:07.650Z,101496.59
2018-08-17T20:30:37.767Z,101500.19
2018-08-17T20:33:18.369Z,101494.01
2018-08-17T20:35:48.462Z,101496.30
2018-08-17T20:38:18.613Z,101495.81
2018-08-17T20:40:48.746Z,101495.03
2018-08-17T20:43:18.887Z,101488.78
2018-08-17T20:45:48.967Z,101498.48
2018-08-17T20:48:19.059Z,101499.81
2018-08-17T20:50:49.166Z,101506.88
2018-08-17T20:53:21.463Z,101502.66
2018-08-17T20:55:51.580Z,101506.34
2018-08-17T20:58:21.722Z,101504.95
2018-08-17T21:00:51.876Z,101512.39
2018-08-17T21:03:22.012Z,101512.94
2018-08-17T21:05:52.104Z,101517.88
2018-08-17T21:08:22.253Z,101521.56
2018-08-17T21:10:52.379Z,101523.34
2018-08-17T21:13:22.539Z,101527.56
2018-08-17T21:15:52.676Z,101525.03
2018-08-17T21:18:22.799Z,101529.09
2018-08-17T21:20:52.961Z,101524.05
2018-08-17T21:23:23.065Z,101529.48
2018-08-17T21:25:53.186Z,101528.20
2018-08-17T21:28:23.961Z,101523.22
2018-08-17T21:30:54.154Z,101525.16
2018-08-17T21:33:24.323Z,101534.34
2018-08-17T21:35:54.450Z,101532.42
2018-08-17T21:38:24.609Z,101528.77
2018-08-17T21:40:54.783Z,101529.30
2018-08-17T21:43:24.988Z,101537.66
2018-08-17T21:45:59.048Z,101529.83
2018-08-17T21:48:29.607Z,101540.79
2018-08-17T21:50:59.749Z,101537.66
2018-08-17T21:53:29.955Z,101542.52
2018-08-17T21:56:00.373Z,101533.09
2018-08-17T21:58:30.989Z,101537.44
2018-08-17T22:01:01.678Z,101530.93
2018-08-17T22:03:33.640Z,101541.14
2018-08-17T22:06:04.041Z,101535.44
2018-08-17T22:08:34.334Z,101539.59
2018-08-17T22:11:04.635Z,101539.38
2018-08-17T22:13:36.600Z,101540.42
2018-08-17T22:16:06.912Z,101539.47
2018-08-17T22:18:37.263Z,101537.36
2018-08-17T22:21:07.423Z,101535.25
2018-08-17T22:23:37.608Z,101534.48
2018-08-17T22:26:07.875Z,101529.81
2018-08-17T22:28:38.022Z,101539.00
2018-08-17T22:31:08.322Z,101543.71
2018-08-17T22:33:38.500Z,101544.92
2018-08-17T22:36:12.680Z,101550.64
2018-08-17T22:38:46.157Z,101551.99
2018-08-17T22:41:16.445Z,101551.42
2018-08-17T22:43:46.625Z,101553.34
2018-08-17T22:46:16.958Z,101565.60
2018-08-17T22:48:47.259Z,101572.12
2018-08-17T22:51:17.462Z,101570.52
2018-08-17T22:53:47.711Z,101564.75
2018-08-17T22:56:18.023Z,101574.70
2018-08-17T22:58:48.942Z,101570.08
2018-08-17T23:01:21.206Z,101571.42
2018-08-17T23:03:55.166Z,101576.80
2018-08-17T23:06:26.975Z,101582.78
2018-08-17T23:08:57.681Z,101575.94
2018-08-17T23:11:36.694Z,101576.80
2018-08-17T23:14:12.205Z,101579.73
2018-08-17T23:16:42.966Z,101579.63
2018-08-17T23:19:13.064Z,101583.23
2018-08-17T23:21:43.709Z,101583.06
2018-08-17T23:24:13.903Z,101581.69
2018-08-17T23:26:43.983Z,101585.50
2018-08-17T23:29:14.060Z,101587.83
2018-08-17T23:31:44.159Z,101585.50
2018-08-17T23:34:14.232Z,101588.52
2018-08-17T23:36:44.343Z,101583.77
2018-08-17T23:39:14.472Z,101593.80
2018-08-17T23:41:44.533Z,101597.45
2018-08-17T23:44:14.656Z,101594.30
2018-08-17T23:46:44.662Z,101594.35
2018-08-17T23:49:14.705Z,101600.58
2018-08-17T23:51:44.766Z,101591.80
2018-08-17T23:54:14.856Z,101599.98
2018-08-17T23:56:44.992Z,101602.26
2018-08-17T23:59:15.069Z,101598.53
